Harrison, AR (72601)

8:05 PM CDT on August 24, 2016 (GMT -0500)
AJ5C - Northwest Harrison | | Change Station

Elev 1266 ft 36.26 °N, 93.15 °W | Updated 9 seconds ago

Clear
Clear
81.4 °F
Feels Like 87 °F
N
1.2
Wind Variable Wind from SSW
Gusts 1.2 mph

Today
High -- | Low -- °F
--% Chance of Precip.
Yesterday
High -- | Low -- °F
Precip. -- in
Pressure 30.04 in
Visibility 10.0 miles
Clouds Clear
Heat Index 87 °F
Dew Point 74 °F
Humidity 77%
Rainfall 0.00 in
Snow Depth Not available.
6:38 AM 7:50 PM
Waning Gibbous, 51% visible
METAR KHRO 250053Z AUTO 17004KT 10SM CLR 26/22 A3008 RMK AO2 SLP170 T02610222
Pressure 30.04 in
Visibility 10.0 miles
Clouds Clear
Heat Index 87 °F
Dew Point 74 °F
Humidity 77%
Rainfall 0.00 in
Snow Depth Not available.
6:38 AM 7:50 PM
Waning Gibbous, 51% visible
METAR KHRO 250053Z AUTO 17004KT 10SM CLR 26/22 A3008 RMK AO2 SLP170 T02610222

10-Day Weather Forecast

Almanac

Astronomy

Aug. 24, 2016 Rise Set
Actual Time
Civil Twilight
Nautical Twilight
Astronomical Twilight
Moon
Length of Visible Light
Length of Day
Tomorrow will be .
, % of the Moon is Illuminated

Today's Extremes

State Highs State Lows

Community

WunderPhotos

Upload Photos

1,934,757 photos uploaded!

WunderBlog® & News

Nearby

Air Quality

  Air Quality AQ Index Pollutant
Not available.

Snow Depth

Station Depth Elevation

Earthquake Activity

City Distance Mag. Time & Date
Minimum magnitude displayed is 2.5.

Coastal Water Temperatures

Place Temperature

Stations

Nearby Weather Stations

Station Location Temp. Windchill Dew Point Humidity Wind Precip. Elev Updated Type
                   

Watches & Warnings

There are currently no watches in effect.